Terminal Aerodrome Forecast
Issued by NWS Louisville, KY

Home | Current Version | Previous Version | Text Only | Print | Product List | Glossary On
Versions: 1 2 3 4 5 6 7 8 9 10 11 12 13 14 15 16 17 18 19 20 21 22 23 24
239
FTUS43 KLMK 302326
TAFSDF
TAF
KSDF 302326Z 0100/0206 18003KT P6SM VCSH BKN040
     FM010500 18003KT 6SM BR BKN025
     FM010800 17003KT 5SM BR OVC012
     FM011000 18004KT 3SM BR OVC006
     FM011400 19006KT 6SM BR OVC011
     FM011800 21007KT P6SM BKN022
     FM020000 21005KT P6SM SCT028=

USA.gov is the U.S. government's official web portal to all federal, state and local government web resources and services.